Time;durP1;ratioP1;P1;durP2;ratioP2;P2;SDS_P1;SDS_P2;PMS_P1;PMS_P2;Temp;Humidity;BMP_temperature;BMP_pressure;BME280_temperature;BME280_humidity;BME280_pressure;Samples;Min_cycle;Max_cycle;Signal;HPM_P1;HPM_P2
2022/03/29 00:03:33;;;;;;;23.98;11.30;;;;;;;;;;10153184;29;20083;-65
2022/03/29 00:08:35;;;;;;;21.98;10.63;;;;;;;;;;10155902;29;20059;-65
2022/03/29 00:13:39;;;;;;;23.77;10.68;;;;;;;;;;10154431;29;20347;-65
2022/03/29 00:18:41;;;;;;;28.48;13.57;;;;;;;;;;10155267;29;20052;-66
2022/03/29 00:23:43;;;;;;;25.15;12.98;;;;;;;;;;10155801;29;20255;-68
2022/03/29 00:28:48;;;;;;;29.98;12.55;;;;;;;;;;10154881;29;20351;-65
2022/03/29 00:33:51;;;;;;;24.50;12.23;;;;;;;;;;10151330;29;20060;-65
2022/03/29 00:38:54;;;;;;;20.92;11.85;;;;;;;;;;10152494;29;20060;-65
2022/03/29 00:43:58;;;;;;;21.77;11.50;;;;;;;;;;10154772;29;20399;-65
2022/03/29 00:49:01;;;;;;;26.92;11.43;;;;;;;;;;10152082;29;20061;-65
2022/03/29 00:54:04;;;;;;;27.30;12.20;;;;;;;;;;10154219;29;20123;-66
2022/03/29 00:59:07;;;;;;;23.30;12.63;;;;;;;;;;10154113;29;20082;-65
2022/03/29 01:04:10;;;;;;;23.33;11.75;;;;;;;;;;10119531;29;20125;-64
2022/03/29 01:09:12;;;;;;;21.20;10.63;;;;;;;;;;10127950;29;20056;-65
2022/03/29 01:14:16;;;;;;;24.38;10.60;;;;;;;;;;10153278;29;20091;-65
2022/03/29 01:19:21;;;;;;;19.00;10.38;;;;;;;;;;10151838;29;20082;-66
2022/03/29 01:24:26;;;;;;;20.17;10.23;;;;;;;;;;10153015;29;20072;-66
2022/03/29 01:29:30;;;;;;;20.13;10.13;;;;;;;;;;10151485;29;20311;-65
2022/03/29 01:34:35;;;;;;;16.60;9.63;;;;;;;;;;10152852;29;20063;-64
2022/03/29 01:39:39;;;;;;;19.02;10.45;;;;;;;;;;10150741;29;20075;-66
2022/03/29 01:44:41;;;;;;;22.90;10.85;;;;;;;;;;10145316;29;20056;-65
2022/03/29 01:49:44;;;;;;;25.25;12.30;;;;;;;;;;10153087;29;20099;-65
2022/03/29 01:54:48;;;;;;;18.60;9.77;;;;;;;;;;10149840;29;20079;-66
2022/03/29 02:05:10;;;;;;;21.27;11.02;;;;;;;;;;10152780;29;20101;-66
2022/03/29 02:10:18;;;;;;;30.15;11.13;;;;;;;;;;10144238;29;20075;-66
2022/03/29 02:15:20;;;;;;;23.73;10.95;;;;;;;;;;10154926;29;20053;-66
2022/03/29 02:20:25;;;;;;;20.85;10.70;;;;;;;;;;10152253;29;20064;-65
2022/03/29 02:25:29;;;;;;;21.08;11.55;;;;;;;;;;10152180;29;20048;-66
2022/03/29 02:30:32;;;;;;;19.02;11.23;;;;;;;;;;10156647;29;20080;-66
2022/03/29 02:35:35;;;;;;;20.45;11.48;;;;;;;;;;10158140;29;20071;-66
2022/03/29 02:40:39;;;;;;;22.92;11.73;;;;;;;;;;10151903;29;20048;-66
2022/03/29 02:45:41;;;;;;;22.10;13.70;;;;;;;;;;10157919;29;20335;-66
2022/03/29 02:50:44;;;;;;;60.80;37.08;;;;;;;;;;10158857;29;20281;-66
2022/03/29 02:55:48;;;;;;;49.30;26.60;;;;;;;;;;10154619;29;20081;-66
2022/03/29 03:00:51;;;;;;;36.13;20.30;;;;;;;;;;10172408;29;20080;-66
2022/03/29 03:05:54;;;;;;;35.55;19.00;;;;;;;;;;10123035;29;20072;-65
2022/03/29 03:10:57;;;;;;;26.15;14.02;;;;;;;;;;10152589;29;20082;-65
2022/03/29 03:16:00;;;;;;;28.65;13.77;;;;;;;;;;10158764;29;20370;-65
2022/03/29 03:21:02;;;;;;;30.40;14.60;;;;;;;;;;10158147;29;20350;-65
2022/03/29 03:26:06;;;;;;;20.73;12.75;;;;;;;;;;10157955;29;20053;-65
2022/03/29 03:31:08;;;;;;;22.60;12.30;;;;;;;;;;10153963;29;20072;-66
2022/03/29 03:36:10;;;;;;;24.58;13.18;;;;;;;;;;10157733;29;20064;-66
2022/03/29 03:41:14;;;;;;;24.73;14.30;;;;;;;;;;10142599;29;20112;-67
2022/03/29 03:46:17;;;;;;;31.17;15.32;;;;;;;;;;10125068;29;20084;-66
2022/03/29 03:51:22;;;;;;;30.08;14.68;;;;;;;;;;10154067;29;20062;-65
2022/03/29 03:56:25;;;;;;;26.20;15.23;;;;;;;;;;10119644;29;20125;-65
2022/03/29 04:01:28;;;;;;;29.20;14.90;;;;;;;;;;10153419;29;20065;-65
2022/03/29 04:06:30;;;;;;;35.30;17.42;;;;;;;;;;10118777;29;20121;-66
2022/03/29 04:11:34;;;;;;;37.03;17.20;;;;;;;;;;10154675;29;20063;-65
2022/03/29 04:16:36;;;;;;;30.63;15.15;;;;;;;;;;10155469;29;20280;-65
2022/03/29 04:21:39;;;;;;;26.95;14.95;;;;;;;;;;10154860;29;20075;-67
2022/03/29 04:26:43;;;;;;;31.45;15.30;;;;;;;;;;10154632;29;20068;-65
2022/03/29 04:31:45;;;;;;;28.95;15.30;;;;;;;;;;10138505;29;20219;-65
2022/03/29 04:36:47;;;;;;;29.27;16.40;;;;;;;;;;10130693;29;20115;-66
2022/03/29 04:41:51;;;;;;;35.45;17.00;;;;;;;;;;10153938;29;20086;-67
2022/03/29 04:46:54;;;;;;;32.75;15.35;;;;;;;;;;10153547;29;20068;-66
2022/03/29 04:51:57;;;;;;;31.52;16.45;;;;;;;;;;10154202;29;20048;-66
2022/03/29 04:57:02;;;;;;;31.23;15.82;;;;;;;;;;10153496;29;20080;-65
2022/03/29 05:02:05;;;;;;;35.67;19.35;;;;;;;;;;10152987;29;20386;-67
2022/03/29 05:07:07;;;;;;;52.05;29.00;;;;;;;;;;10153475;29;20069;-66
2022/03/29 05:12:11;;;;;;;43.03;25.10;;;;;;;;;;10148499;29;20064;-65
2022/03/29 05:17:13;;;;;;;36.28;18.33;;;;;;;;;;10153136;29;20052;-66
2022/03/29 05:22:16;;;;;;;35.40;17.98;;;;;;;;;;10152377;29;20052;-66
2022/03/29 05:27:19;;;;;;;38.90;17.52;;;;;;;;;;10151253;29;20047;-65
2022/03/29 05:32:21;;;;;;;37.50;19.13;;;;;;;;;;10151578;29;20078;-66
2022/03/29 05:37:24;;;;;;;35.80;18.10;;;;;;;;;;10139030;29;20100;-66
2022/03/29 05:42:27;;;;;;;36.17;17.05;;;;;;;;;;10127017;29;20045;-65
2022/03/29 05:52:50;;;;;;;34.78;16.65;;;;;;;;;;10151367;29;20120;-65
2022/03/29 05:57:54;;;;;;;34.05;17.73;;;;;;;;;;10123512;29;20068;-66
2022/03/29 06:02:57;;;;;;;36.80;17.75;;;;;;;;;;10140423;29;20064;-67
2022/03/29 06:08:00;;;;;;;34.63;18.13;;;;;;;;;;10151731;29;20045;-66
2022/03/29 06:13:03;;;;;;;34.25;16.40;;;;;;;;;;10146877;29;20084;-66
2022/03/29 06:18:06;;;;;;;35.53;17.30;;;;;;;;;;10123372;29;20053;-66
2022/03/29 06:23:09;;;;;;;40.17;18.60;;;;;;;;;;10129754;29;20049;-66
2022/03/29 06:28:14;;;;;;;37.70;18.70;;;;;;;;;;10151179;29;20048;-66
2022/03/29 06:33:16;;;;;;;29.15;15.27;;;;;;;;;;10151210;29;20056;-66
2022/03/29 06:38:21;;;;;;;37.05;18.75;;;;;;;;;;10152422;29;20255;-67
2022/03/29 06:43:24;;;;;;;35.35;18.35;;;;;;;;;;10151266;29;20449;-67
2022/03/29 06:48:27;;;;;;;27.30;15.70;;;;;;;;;;10152191;29;20273;-66
2022/03/29 06:53:30;;;;;;;36.95;15.68;;;;;;;;;;10152220;29;20081;-67
2022/03/29 06:58:33;;;;;;;27.02;16.08;;;;;;;;;;10150525;29;20061;-66
2022/03/29 07:03:36;;;;;;;32.30;17.42;;;;;;;;;;10150515;29;20100;-67
2022/03/29 07:11:16;;;;;;;36.67;20.83;;;;;;;;;;10150470;29;20072;-65
2022/03/29 07:14:06;;;;;;;49.38;32.63;;;;;;;;;;10154946;29;20075;-67
2022/03/29 07:19:09;;;;;;;50.40;34.28;;;;;;;;;;10170624;29;20064;-65
2022/03/29 07:24:12;;;;;;;39.83;23.35;;;;;;;;;;10158103;29;20324;-66
2022/03/29 07:29:15;;;;;;;58.95;43.22;;;;;;;;;;10158829;29;20071;-66
2022/03/29 07:34:18;;;;;;;44.97;34.63;;;;;;;;;;10156978;29;20068;-67
2022/03/29 07:39:20;;;;;;;45.72;34.63;;;;;;;;;;10156547;29;20059;-67
2022/03/29 07:44:24;;;;;;;26.88;20.15;;;;;;;;;;10147294;29;20084;-67
2022/03/29 07:49:27;;;;;;;27.40;20.65;;;;;;;;;;10152250;29;20064;-66
2022/03/29 07:54:29;;;;;;;27.90;17.35;;;;;;;;;;10117218;29;20052;-66
2022/03/29 07:59:33;;;;;;;34.38;20.98;;;;;;;;;;10136795;29;20072;-67
2022/03/29 08:04:36;;;;;;;26.45;16.85;;;;;;;;;;10120662;29;20061;-66
2022/03/29 08:09:39;;;;;;;25.13;16.55;;;;;;;;;;10145080;29;20316;-66
2022/03/29 08:14:42;;;;;;;26.85;16.48;;;;;;;;;;10155276;29;20225;-68
2022/03/29 08:20:05;;;;;;;24.88;16.70;;;;;;;;;;10155183;29;20124;-66
2022/03/29 08:25:26;;;;;;;21.58;15.65;;;;;;;;;;10141651;29;20048;-66
2022/03/29 08:30:31;;;;;;;24.73;16.30;;;;;;;;;;10155496;29;20302;-67
2022/03/29 08:35:34;;;;;;;27.10;17.23;;;;;;;;;;10154877;29;20297;-66
2022/03/29 08:40:36;;;;;;;26.58;17.17;;;;;;;;;;10153628;29;20060;-67
2022/03/29 08:45:44;;;;;;;29.33;18.00;;;;;;;;;;10155267;29;20247;-67
2022/03/29 08:50:47;;;;;;;29.08;19.40;;;;;;;;;;10155253;29;20278;-65
2022/03/29 08:55:51;;;;;;;34.60;19.73;;;;;;;;;;10152762;29;20071;-68
2022/03/29 09:00:55;;;;;;;25.90;18.30;;;;;;;;;;10154529;29;20059;-67
2022/03/29 09:06:06;;;;;;;26.75;18.67;;;;;;;;;;10153198;29;20052;-66
2022/03/29 09:11:09;;;;;;;33.83;19.17;;;;;;;;;;10165092;29;20044;-66
2022/03/29 09:16:31;;;;;;;29.13;16.63;;;;;;;;;;10146018;29;20048;-66
2022/03/29 09:21:41;;;;;;;30.98;15.45;;;;;;;;;;10127748;29;20085;-69
2022/03/29 09:26:47;;;;;;;26.20;15.35;;;;;;;;;;10132494;29;20048;-67
2022/03/29 09:32:03;;;;;;;34.58;20.60;;;;;;;;;;10127491;29;20040;-65
2022/03/29 09:37:06;;;;;;;27.92;17.02;;;;;;;;;;10165421;29;20051;-65
2022/03/29 09:42:11;;;;;;;30.90;16.85;;;;;;;;;;10150259;29;20063;-66
2022/03/29 09:47:20;;;;;;;39.73;20.27;;;;;;;;;;10135913;29;20053;-69
2022/03/29 09:52:24;;;;;;;32.20;16.63;;;;;;;;;;10114149;29;20059;-67
2022/03/29 09:57:35;;;;;;;26.92;14.00;;;;;;;;;;10147117;29;20276;-67
2022/03/29 10:02:41;;;;;;;32.17;15.80;;;;;;;;;;10160060;29;20236;-66
2022/03/29 10:07:46;;;;;;;26.55;14.75;;;;;;;;;;10163758;29;20056;-67
2022/03/29 10:12:49;;;;;;;31.27;14.23;;;;;;;;;;10149707;29;20048;-66
2022/03/29 10:17:53;;;;;;;27.35;11.75;;;;;;;;;;10146258;29;20300;-67
2022/03/29 10:22:57;;;;;;;24.77;11.32;;;;;;;;;;10150704;29;20048;-66
2022/03/29 10:28:01;;;;;;;17.80;9.10;;;;;;;;;;10151227;29;20052;-68
2022/03/29 10:33:19;;;;;;;28.70;11.80;;;;;;;;;;10149443;29;20063;-67
2022/03/29 10:38:22;;;;;;;22.23;11.60;;;;;;;;;;10164128;29;20051;-67
2022/03/29 10:43:30;;;;;;;19.55;11.32;;;;;;;;;;10148150;29;20044;-67
2022/03/29 10:48:34;;;;;;;20.48;11.90;;;;;;;;;;10129363;29;20041;-66
2022/03/29 10:53:38;;;;;;;22.27;11.45;;;;;;;;;;10159205;29;20052;-66
2022/03/29 10:59:12;;;;;;;21.95;12.57;;;;;;;;;;10157646;29;20056;-69
2022/03/29 11:04:27;;;;;;;23.33;11.30;;;;;;;;;;10162840;29;20068;-68
2022/03/29 11:09:29;;;;;;;21.40;11.50;;;;;;;;;;10167276;29;20047;-67
2022/03/29 11:14:38;;;;;;;20.08;11.45;;;;;;;;;;10157054;29;20055;-67
2022/03/29 11:19:44;;;;;;;21.92;12.00;;;;;;;;;;10151894;29;20073;-67
2022/03/29 11:24:47;;;;;;;19.08;11.63;;;;;;;;;;10148116;29;20041;-67
2022/03/29 11:29:49;;;;;;;20.33;12.93;;;;;;;;;;10156466;29;20062;-66
2022/03/29 11:34:55;;;;;;;20.63;12.20;;;;;;;;;;10156856;29;20040;-67
2022/03/29 11:39:59;;;;;;;19.02;12.70;;;;;;;;;;10168971;29;20040;-69
2022/03/29 11:45:07;;;;;;;23.00;13.52;;;;;;;;;;10155996;29;20044;-68
2022/03/29 11:50:12;;;;;;;22.70;12.05;;;;;;;;;;10156071;29;20049;-66
2022/03/29 11:55:17;;;;;;;25.27;14.10;;;;;;;;;;10155745;29;20080;-68
2022/03/29 12:00:25;;;;;;;23.13;15.50;;;;;;;;;;10155654;29;20070;-68
2022/03/29 12:05:29;;;;;;;18.40;11.43;;;;;;;;;;10155800;29;20080;-68
2022/03/29 12:10:34;;;;;;;21.35;11.68;;;;;;;;;;10156813;29;20040;-69
2022/03/29 12:15:36;;;;;;;22.75;15.30;;;;;;;;;;10156880;29;20067;-67
2022/03/29 12:20:40;;;;;;;22.02;12.85;;;;;;;;;;10154558;29;20048;-66
2022/03/29 12:25:43;;;;;;;17.70;10.43;;;;;;;;;;10155571;29;20048;-66
2022/03/29 12:30:46;;;;;;;18.60;10.27;;;;;;;;;;10156020;29;20048;-67
2022/03/29 12:36:03;;;;;;;20.77;11.25;;;;;;;;;;10151279;29;20128;-67
2022/03/29 12:41:05;;;;;;;21.35;12.65;;;;;;;;;;10168452;29;20048;-68
2022/03/29 12:46:11;;;;;;;24.63;12.05;;;;;;;;;;10124825;29;20225;-67
2022/03/29 12:51:15;;;;;;;20.23;10.95;;;;;;;;;;10156785;29;20033;-66
2022/03/29 12:56:28;;;;;;;24.55;11.95;;;;;;;;;;10153656;29;20060;-68
2022/03/29 13:01:32;;;;;;;20.85;10.55;;;;;;;;;;10154843;29;20353;-66
2022/03/29 13:06:44;;;;;;;19.80;10.77;;;;;;;;;;10153338;29;20063;-67
2022/03/29 13:11:47;;;;;;;22.33;12.77;;;;;;;;;;10134561;29;20045;-67
2022/03/29 13:16:51;;;;;;;18.15;10.13;;;;;;;;;;10145778;29;20059;-66
2022/03/29 13:22:01;;;;;;;24.67;16.40;;;;;;;;;;10152823;29;20052;-66
2022/03/29 13:27:04;;;;;;;25.80;13.27;;;;;;;;;;10165347;29;20056;-68
2022/03/29 13:32:08;;;;;;;19.73;14.23;;;;;;;;;;10151994;29;20055;-66
2022/03/29 13:37:11;;;;;;;14.38;9.07;;;;;;;;;;10117804;29;20045;-67
2022/03/29 13:42:14;;;;;;;17.60;10.05;;;;;;;;;;10147567;29;20057;-67
2022/03/29 13:47:16;;;;;;;16.50;10.27;;;;;;;;;;10152232;29;20066;-68
2022/03/29 13:52:21;;;;;;;24.17;16.45;;;;;;;;;;10152177;29;20044;-68
2022/03/29 13:57:24;;;;;;;16.00;10.30;;;;;;;;;;10127023;29;20323;-67
2022/03/29 14:02:26;;;;;;;23.80;12.88;;;;;;;;;;10153757;29;20089;-68
2022/03/29 14:07:30;;;;;;;23.73;13.00;;;;;;;;;;10152512;29;20235;-68
2022/03/29 14:12:32;;;;;;;37.95;28.80;;;;;;;;;;10149212;29;20217;-67
2022/03/29 14:17:35;;;;;;;33.45;20.73;;;;;;;;;;10148389;29;20217;-68
2022/03/29 14:22:38;;;;;;;18.88;11.00;;;;;;;;;;10120080;29;20053;-67
2022/03/29 14:27:41;;;;;;;23.48;12.75;;;;;;;;;;10114170;29;20057;-67
2022/03/29 14:32:43;;;;;;;19.10;11.43;;;;;;;;;;10116017;29;20336;-67
2022/03/29 14:37:47;;;;;;;21.27;11.52;;;;;;;;;;10114273;29;20041;-67
2022/03/29 14:42:49;;;;;;;25.25;16.42;;;;;;;;;;10133569;29;20056;-69
2022/03/29 14:47:52;;;;;;;35.63;22.92;;;;;;;;;;10150449;29;20052;-67
2022/03/29 14:52:56;;;;;;;21.38;12.40;;;;;;;;;;10152350;29;20056;-68
2022/03/29 14:57:59;;;;;;;22.43;12.23;;;;;;;;;;10151551;29;20051;-67
2022/03/29 15:03:01;;;;;;;24.05;13.43;;;;;;;;;;10151670;29;20075;-68
2022/03/29 15:08:06;;;;;;;23.80;14.23;;;;;;;;;;10123799;29;20061;-66
2022/03/29 15:13:08;;;;;;;22.77;13.18;;;;;;;;;;10118343;29;20060;-67
2022/03/29 15:18:10;;;;;;;27.25;16.42;;;;;;;;;;10149821;29;20379;-67
2022/03/29 15:23:14;;;;;;;21.30;13.45;;;;;;;;;;10151250;29;20302;-67
2022/03/29 15:28:16;;;;;;;17.88;10.50;;;;;;;;;;10150136;29;20089;-68
2022/03/29 15:33:19;;;;;;;41.70;24.80;;;;;;;;;;10152761;29;20066;-69
2022/03/29 15:38:22;;;;;;;34.33;16.42;;;;;;;;;;10158307;29;20044;-67
2022/03/29 15:43:25;;;;;;;42.55;29.65;;;;;;;;;;10156979;29;20311;-66
2022/03/29 15:48:27;;;;;;;41.17;26.15;;;;;;;;;;10148644;29;20121;-68
2022/03/29 15:53:31;;;;;;;45.13;26.13;;;;;;;;;;10158807;29;20071;-67
2022/03/29 15:58:33;;;;;;;44.53;31.45;;;;;;;;;;10156963;29;20097;-67
2022/03/29 16:03:37;;;;;;;38.78;28.27;;;;;;;;;;10156381;29;20060;-66
2022/03/29 16:08:42;;;;;;;31.52;19.20;;;;;;;;;;10157097;29;20055;-68
2022/03/29 16:13:46;;;;;;;32.03;18.52;;;;;;;;;;10169333;29;20092;-70
2022/03/29 16:18:49;;;;;;;35.60;17.75;;;;;;;;;;10154309;29;20248;-71
2022/03/29 16:23:52;;;;;;;34.72;19.10;;;;;;;;;;10141314;29;20122;-67
2022/03/29 16:28:54;;;;;;;38.60;17.27;;;;;;;;;;10152370;29;20174;-67
2022/03/29 16:33:57;;;;;;;47.88;24.23;;;;;;;;;;10154516;29;20052;-67
2022/03/29 16:39:02;;;;;;;75.00;46.80;;;;;;;;;;10156351;29;20040;-68
2022/03/29 16:44:06;;;;;;;34.00;17.42;;;;;;;;;;10148609;29;20056;-68
2022/03/29 16:49:09;;;;;;;35.10;18.95;;;;;;;;;;10124247;29;20065;-68
2022/03/29 16:54:13;;;;;;;32.08;16.92;;;;;;;;;;10120200;29;20056;-67
2022/03/29 16:59:16;;;;;;;33.93;16.43;;;;;;;;;;10154827;29;20056;-67
2022/03/29 17:04:23;;;;;;;44.92;19.90;;;;;;;;;;10156203;29;20065;-67
2022/03/29 17:09:26;;;;;;;42.67;19.77;;;;;;;;;;10165988;29;20277;-68
2022/03/29 17:14:29;;;;;;;57.38;21.70;;;;;;;;;;10151201;29;20060;-67
2022/03/29 17:19:32;;;;;;;59.30;22.42;;;;;;;;;;10152584;29;20051;-68
2022/03/29 17:24:36;;;;;;;56.10;23.70;;;;;;;;;;10150164;29;20051;-67
2022/03/29 17:29:38;;;;;;;54.55;22.90;;;;;;;;;;10153816;29;20064;-67
2022/03/29 17:34:40;;;;;;;56.88;25.88;;;;;;;;;;10153700;29;20051;-66
2022/03/29 17:39:44;;;;;;;42.50;19.80;;;;;;;;;;10153688;29;20371;-66
2022/03/29 17:44:47;;;;;;;47.58;18.55;;;;;;;;;;10153040;29;20096;-67
2022/03/29 17:49:49;;;;;;;36.13;18.00;;;;;;;;;;10154328;29;20068;-67
2022/03/29 17:54:53;;;;;;;52.33;18.33;;;;;;;;;;10151401;29;20049;-66
2022/03/29 17:59:56;;;;;;;41.08;19.20;;;;;;;;;;10150985;29;20064;-68
2022/03/29 18:05:02;;;;;;;50.17;23.45;;;;;;;;;;10153439;29;20127;-67
2022/03/29 18:10:08;;;;;;;53.75;24.02;;;;;;;;;;10164513;29;20099;-68
2022/03/29 18:15:12;;;;;;;41.58;20.75;;;;;;;;;;10164367;29;20096;-70
2022/03/29 18:20:16;;;;;;;47.45;19.95;;;;;;;;;;10150804;29;20056;-68
2022/03/29 18:25:20;;;;;;;47.22;23.23;;;;;;;;;;10151582;29;20048;-69
2022/03/29 18:30:24;;;;;;;51.95;23.83;;;;;;;;;;10151515;29;20037;-66
2022/03/29 18:35:26;;;;;;;55.13;23.55;;;;;;;;;;10152314;29;20059;-68
2022/03/29 18:40:30;;;;;;;53.47;23.08;;;;;;;;;;10152063;29;20076;-69
2022/03/29 18:45:33;;;;;;;49.65;24.45;;;;;;;;;;10151477;29;20052;-67
2022/03/29 18:50:36;;;;;;;53.58;25.15;;;;;;;;;;10151878;29;20053;-67
2022/03/29 18:55:40;;;;;;;53.60;24.88;;;;;;;;;;10151358;29;20037;-68
2022/03/29 19:00:43;;;;;;;45.25;22.35;;;;;;;;;;10150747;29;20036;-67
2022/03/29 19:05:46;;;;;;;45.22;19.27;;;;;;;;;;10151816;29;20267;-68
2022/03/29 19:10:50;;;;;;;40.50;19.65;;;;;;;;;;10156541;29;20068;-69
2022/03/29 19:15:53;;;;;;;36.40;19.55;;;;;;;;;;10159351;29;20116;-68
2022/03/29 19:20:55;;;;;;;40.22;19.20;;;;;;;;;;10154329;29;20045;-66
2022/03/29 19:25:59;;;;;;;40.88;20.63;;;;;;;;;;10158251;29;20056;-67
2022/03/29 19:31:04;;;;;;;46.55;22.48;;;;;;;;;;10157191;29;20040;-67
2022/03/29 19:36:07;;;;;;;46.45;23.55;;;;;;;;;;10157862;29;20068;-67
2022/03/29 19:41:10;;;;;;;45.75;23.77;;;;;;;;;;10158178;29;20350;-69
2022/03/29 19:46:19;;;;;;;53.95;24.83;;;;;;;;;;10158652;29;20074;-68
2022/03/29 19:51:25;;;;;;;51.40;24.08;;;;;;;;;;10141356;29;20054;-67
2022/03/29 19:56:29;;;;;;;48.47;25.45;;;;;;;;;;10163147;29;20068;-68
2022/03/29 20:01:32;;;;;;;48.33;25.10;;;;;;;;;;10157315;29;20354;-67
2022/03/29 20:06:35;;;;;;;57.15;27.50;;;;;;;;;;10158089;29;20069;-67
2022/03/29 20:11:39;;;;;;;53.13;26.40;;;;;;;;;;10154809;29;20087;-67
2022/03/29 20:16:42;;;;;;;56.88;28.30;;;;;;;;;;10154479;29;20049;-69
2022/03/29 20:21:44;;;;;;;59.97;28.23;;;;;;;;;;10150068;29;20052;-67
2022/03/29 20:26:48;;;;;;;65.38;29.52;;;;;;;;;;10156233;29;20211;-68
2022/03/29 20:31:53;;;;;;;65.88;30.80;;;;;;;;;;10132071;29;20319;-67
2022/03/29 20:36:55;;;;;;;70.90;31.50;;;;;;;;;;10137993;29;20419;-66
2022/03/29 20:41:59;;;;;;;66.13;33.05;;;;;;;;;;10153732;29;20049;-67
2022/03/29 20:47:01;;;;;;;80.85;35.45;;;;;;;;;;10155410;29;20284;-66
2022/03/29 20:52:04;;;;;;;78.90;37.00;;;;;;;;;;10154736;29;20205;-68
2022/03/29 20:57:08;;;;;;;79.95;38.17;;;;;;;;;;10154411;29;20064;-67
2022/03/29 21:02:11;;;;;;;72.97;35.25;;;;;;;;;;10154278;29;20060;-67
2022/03/29 21:07:14;;;;;;;75.00;34.15;;;;;;;;;;10154620;29;20080;-67
2022/03/29 21:12:18;;;;;;;75.40;36.75;;;;;;;;;;10154707;29;20331;-67
2022/03/29 21:17:20;;;;;;;74.72;36.38;;;;;;;;;;10154548;29;20223;-67
2022/03/29 21:22:22;;;;;;;74.80;36.78;;;;;;;;;;10154003;29;20049;-67
2022/03/29 21:27:26;;;;;;;73.75;37.15;;;;;;;;;;10154287;29;20049;-67
2022/03/29 21:32:29;;;;;;;81.43;38.55;;;;;;;;;;10151914;29;20312;-67
2022/03/29 21:37:31;;;;;;;80.85;38.13;;;;;;;;;;10147379;29;20064;-67
2022/03/29 21:42:35;;;;;;;71.25;35.30;;;;;;;;;;10152417;29;20057;-67
2022/03/29 21:47:41;;;;;;;80.10;37.20;;;;;;;;;;10152881;29;20052;-67
2022/03/29 21:52:43;;;;;;;71.05;35.08;;;;;;;;;;10127394;29;20052;-67
2022/03/29 21:57:46;;;;;;;72.78;35.75;;;;;;;;;;10151895;29;20045;-67
2022/03/29 22:02:49;;;;;;;77.20;35.85;;;;;;;;;;10151065;29;20096;-67
2022/03/29 22:07:52;;;;;;;77.80;36.08;;;;;;;;;;10152312;29;20224;-67
2022/03/29 22:12:56;;;;;;;87.47;38.55;;;;;;;;;;10152778;29;20081;-65
2022/03/29 22:17:58;;;;;;;80.13;38.63;;;;;;;;;;10151403;29;20104;-67
2022/03/29 22:23:01;;;;;;;88.30;40.53;;;;;;;;;;10151504;29;20051;-66
2022/03/29 22:28:05;;;;;;;86.80;39.03;;;;;;;;;;10151147;29;20052;-67
2022/03/29 22:33:07;;;;;;;82.90;39.58;;;;;;;;;;10152293;29;20057;-67
2022/03/29 22:38:10;;;;;;;80.60;38.17;;;;;;;;;;10153053;29;20104;-67
2022/03/29 22:43:14;;;;;;;79.10;37.03;;;;;;;;;;10152391;29;20328;-66
2022/03/29 22:48:17;;;;;;;80.00;35.78;;;;;;;;;;10159968;29;20056;-67
2022/03/29 22:53:19;;;;;;;76.22;35.97;;;;;;;;;;10160325;29;20112;-65
2022/03/29 22:58:23;;;;;;;78.72;34.50;;;;;;;;;;10158956;29;20224;-66
2022/03/29 23:03:26;;;;;;;73.10;32.75;;;;;;;;;;10158128;29;20075;-66
2022/03/29 23:08:28;;;;;;;74.30;32.25;;;;;;;;;;10159047;29;20064;-67
2022/03/29 23:13:32;;;;;;;66.10;31.13;;;;;;;;;;10158742;29;20363;-66
2022/03/29 23:18:34;;;;;;;64.88;29.58;;;;;;;;;;10158780;29;20344;-66
2022/03/29 23:23:36;;;;;;;56.90;25.35;;;;;;;;;;10157351;29;20053;-66
2022/03/29 23:28:40;;;;;;;69.63;28.98;;;;;;;;;;10158627;29;20096;-66
2022/03/29 23:33:42;;;;;;;66.82;29.27;;;;;;;;;;10157610;29;20051;-66
2022/03/29 23:38:44;;;;;;;59.92;27.27;;;;;;;;;;10143444;29;20407;-66
2022/03/29 23:43:48;;;;;;;58.70;26.23;;;;;;;;;;10158548;29;20080;-67
2022/03/29 23:48:51;;;;;;;59.33;23.55;;;;;;;;;;10159072;29;20048;-66
2022/03/29 23:53:53;;;;;;;60.92;25.23;;;;;;;;;;10157036;29;20060;-66
2022/03/29 23:58:57;;;;;;;62.78;26.42;;;;;;;;;;10156431;29;20049;-66
